createdAt,value
2018-10-16T00:00:15.670Z,94470.34
2018-10-16T00:02:47.008Z,94469.84
2018-10-16T00:05:19.409Z,94471.67
2018-10-16T00:07:51.184Z,94483.34
2018-10-16T00:10:26.441Z,94476.68
2018-10-16T00:12:57.247Z,94481.74
2018-10-16T00:15:26.926Z,94481.55
2018-10-16T00:17:57.036Z,94489.52
2018-10-16T00:20:26.454Z,94487.06
2018-10-16T00:22:56.133Z,94487.84
2018-10-16T00:25:25.707Z,94485.94
2018-10-16T00:27:55.479Z,94490.84
2018-10-16T00:30:24.839Z,94488.23
2018-10-16T00:32:54.263Z,94489.04
2018-10-16T00:35:23.486Z,94484.77
2018-10-16T00:37:52.763Z,94482.37
2018-10-16T00:40:22.029Z,94475.78
2018-10-16T00:42:51.460Z,94474.91
2018-10-16T00:45:20.749Z,94479.87
2018-10-16T00:47:50.208Z,94470.72
2018-10-16T00:50:19.812Z,94470.60
2018-10-16T00:52:49.046Z,94463.23
2018-10-16T00:55:18.393Z,94471.11
2018-10-16T00:57:47.708Z,94471.30
2018-10-16T01:00:18.160Z,94474.38
2018-10-16T01:02:47.689Z,94476.78
2018-10-16T01:05:17.297Z,94471.45
2018-10-16T01:07:47.623Z,94473.89
2018-10-16T01:10:17.097Z,94465.43
2018-10-16T01:12:46.507Z,94450.44
2018-10-16T01:15:16.744Z,94466.70
2018-10-16T01:17:46.090Z,94471.30
2018-10-16T01:20:15.768Z,94469.02
2018-10-16T01:22:45.059Z,94470.11
2018-10-16T01:25:14.587Z,94473.26
2018-10-16T01:27:43.795Z,94469.84
2018-10-16T01:30:13.436Z,94475.86
2018-10-16T01:32:42.707Z,94475.30
2018-10-16T01:35:12.627Z,94473.78
2018-10-16T01:37:43.411Z,94472.12
2018-10-16T01:40:12.891Z,94471.02
2018-10-16T01:42:42.354Z,94474.87
2018-10-16T01:45:12.438Z,94467.31
2018-10-16T01:47:42.069Z,94466.13
2018-10-16T01:50:11.468Z,94463.54
2018-10-16T01:52:40.820Z,94472.98
2018-10-16T01:55:10.390Z,94469.63
2018-10-16T01:57:39.925Z,94468.11
2018-10-16T02:00:10.635Z,94469.77
2018-10-16T02:02:40.564Z,94464.51
2018-10-16T02:05:11.157Z,94469.27
2018-10-16T02:07:40.977Z,94468.28
2018-10-16T02:10:10.513Z,94468.44
2018-10-16T02:12:39.973Z,94471.59
2018-10-16T02:15:09.749Z,94462.31
2018-10-16T02:17:39.980Z,94467.30
2018-10-16T02:20:10.200Z,94454.67
2018-10-16T02:22:40.525Z,94478.48
2018-10-16T02:25:10.792Z,94477.04
2018-10-16T02:27:40.771Z,94480.80
2018-10-16T02:30:10.323Z,94483.98
2018-10-16T02:32:40.438Z,94484.39
2018-10-16T02:35:11.067Z,94479.52
2018-10-16T02:37:40.898Z,94485.88
2018-10-16T02:40:11.040Z,94487.42
2018-10-16T02:42:41.342Z,94495.47
2018-10-16T02:45:11.514Z,94490.91
2018-10-16T02:47:41.246Z,94491.16
2018-10-16T02:50:11.512Z,94504.21
2018-10-16T02:52:40.805Z,94493.81
2018-10-16T02:55:11.204Z,94494.50
2018-10-16T02:57:40.917Z,94493.81
2018-10-16T03:00:10.338Z,94494.17
2018-10-16T03:02:39.838Z,94492.27
2018-10-16T03:05:09.737Z,94495.05
2018-10-16T03:07:39.358Z,94497.63
2018-10-16T03:10:08.882Z,94500.50
2018-10-16T03:12:38.445Z,94495.64
2018-10-16T03:15:11.456Z,94495.95
2018-10-16T03:17:41.464Z,94497.45
2018-10-16T03:20:11.764Z,94495.61
2018-10-16T03:22:41.480Z,94503.22
2018-10-16T03:25:12.646Z,94494.43
2018-10-16T03:27:42.398Z,94497.16
2018-10-16T03:30:12.690Z,94497.20
2018-10-16T03:32:42.209Z,94498.41
2018-10-16T03:35:12.477Z,94502.92
2018-10-16T03:37:42.540Z,94507.47
2018-10-16T03:40:12.340Z,94498.67
2018-10-16T03:42:42.509Z,94502.41
2018-10-16T03:45:13.461Z,94505.23
2018-10-16T03:47:43.148Z,94512.98
2018-10-16T03:50:12.582Z,94513.97
2018-10-16T03:52:41.967Z,94510.34
2018-10-16T03:55:11.258Z,94502.41
2018-10-16T03:57:41.029Z,94502.34
2018-10-16T04:00:11.477Z,94501.52
2018-10-16T04:02:40.997Z,94507.59
2018-10-16T04:05:11.190Z,94508.61
2018-10-16T04:07:41.001Z,94505.35
2018-10-16T04:10:10.358Z,94510.18
2018-10-16T04:12:39.865Z,94512.83
2018-10-16T04:15:10.869Z,94516.08
2018-10-16T04:17:41.025Z,94520.63
2018-10-16T04:20:10.496Z,94515.25
2018-10-16T04:22:40.107Z,94522.76
2018-10-16T04:25:09.993Z,94521.89
2018-10-16T04:27:39.832Z,94533.52
2018-10-16T04:30:09.558Z,94529.70
2018-10-16T04:32:39.123Z,94531.20
2018-10-16T04:35:12.063Z,94531.09
2018-10-16T04:37:41.402Z,94524.14
2018-10-16T04:40:10.847Z,94529.05
2018-10-16T04:42:40.394Z,94529.86
2018-10-16T04:45:11.264Z,94527.70
2018-10-16T04:47:42.810Z,94528.61
2018-10-16T04:50:13.175Z,94529.12
2018-10-16T04:52:42.512Z,94526.97
2018-10-16T04:55:11.994Z,94526.10
2018-10-16T04:57:42.065Z,94523.57
2018-10-16T05:00:11.461Z,94528.20
2018-10-16T05:02:41.862Z,94534.11
2018-10-16T05:05:20.294Z,94536.06
2018-10-16T05:07:50.004Z,94536.13
2018-10-16T05:10:19.874Z,94533.09
2018-10-16T05:12:49.536Z,94532.05
2018-10-16T05:15:29.888Z,94509.68
2018-10-16T05:17:59.521Z,94541.52
2018-10-16T05:20:29.109Z,94548.64
2018-10-16T05:23:00.567Z,94550.47
2018-10-16T05:25:31.103Z,94545.70
2018-10-16T05:28:01.509Z,94555.45
2018-10-16T05:30:31.552Z,94552.81
2018-10-16T05:33:00.779Z,94552.81
2018-10-16T05:35:30.179Z,94556.73
2018-10-16T05:37:59.756Z,94548.09
2018-10-16T05:40:29.136Z,94551.53
2018-10-16T05:42:58.582Z,94564.60
2018-10-16T05:45:29.447Z,94562.08
2018-10-16T05:47:58.591Z,94563.76
2018-10-16T05:50:27.958Z,94564.06
2018-10-16T05:52:57.420Z,94564.64
2018-10-16T05:55:26.821Z,94566.55
2018-10-16T05:57:56.197Z,94575.02
2018-10-16T06:00:44.587Z,94568.48
2018-10-16T06:03:15.225Z,94581.41
2018-10-16T06:05:44.782Z,94575.09
2018-10-16T06:08:14.479Z,94582.65
2018-10-16T06:10:43.939Z,94592.72
2018-10-16T06:13:13.245Z,94597.89
2018-10-16T06:15:42.649Z,94593.54
2018-10-16T06:18:12.131Z,94600.11
2018-10-16T06:20:41.492Z,94599.70
2018-10-16T06:23:13.979Z,94600.06
2018-10-16T06:25:43.371Z,94598.70
2018-10-16T06:28:16.058Z,94603.67
2018-10-16T06:30:45.548Z,94606.27
2018-10-16T06:33:15.996Z,94605.66
2018-10-16T06:35:45.646Z,94609.44
2018-10-16T06:38:15.108Z,94607.13
2018-10-16T06:40:44.835Z,94613.05
2018-10-16T06:43:14.463Z,94610.64
2018-10-16T06:45:45.302Z,94616.58
2018-10-16T06:48:14.803Z,94622.78
2018-10-16T06:50:44.344Z,94622.97
2018-10-16T06:53:14.994Z,94631.41
2018-10-16T06:55:44.400Z,94634.73
2018-10-16T06:58:14.714Z,94633.57
2018-10-16T07:00:44.043Z,94636.59
2018-10-16T07:03:13.611Z,94630.91
2018-10-16T07:05:42.957Z,94635.11
2018-10-16T07:08:13.329Z,94633.36
2018-10-16T07:10:42.766Z,94631.06
2018-10-16T07:13:12.132Z,94633.20
2018-10-16T07:15:41.566Z,94636.40
2018-10-16T07:18:11.971Z,94633.09
2018-10-16T07:20:41.363Z,94631.27
2018-10-16T07:23:10.864Z,94636.81
2018-10-16T07:25:40.363Z,94629.34
2018-10-16T07:28:11.844Z,94629.17
2018-10-16T07:30:41.407Z,94627.72
2018-10-16T07:33:10.985Z,94634.59
2018-10-16T07:35:40.286Z,94639.12
2018-10-16T07:38:09.751Z,94636.29
2018-10-16T07:40:39.102Z,94628.55
2018-10-16T07:43:09.420Z,94629.92
2018-10-16T07:45:41.841Z,94635.34
2018-10-16T07:48:11.235Z,94635.21
2018-10-16T07:50:40.737Z,94631.53
2018-10-16T07:53:10.188Z,94631.07
2018-10-16T07:55:39.570Z,94629.34
2018-10-16T07:58:09.052Z,94630.41
2018-10-16T08:00:38.945Z,94630.23
2018-10-16T08:03:08.466Z,94626.44
2018-10-16T08:05:37.925Z,94621.45
2018-10-16T08:08:07.239Z,94620.13
2018-10-16T08:10:36.827Z,94624.43
2018-10-16T08:13:06.337Z,94620.41
2018-10-16T08:15:35.853Z,94617.39
2018-10-16T08:18:05.303Z,94613.71
2018-10-16T08:20:35.116Z,94614.72
2018-10-16T08:23:05.609Z,94611.31
2018-10-16T08:25:35.143Z,94615.03
2018-10-16T08:28:05.546Z,94617.80
2018-10-16T08:30:34.849Z,94614.55
2018-10-16T08:33:04.288Z,94617.00
2018-10-16T08:35:33.642Z,94609.41
2018-10-16T08:39:38.472Z,94604.81
2018-10-16T08:43:24.525Z,94598.22
2018-10-16T08:46:04.702Z,94590.67
2018-10-16T08:48:45.589Z,94587.88
2018-10-16T08:51:25.796Z,94589.83
2018-10-16T08:53:56.588Z,94586.42
2018-10-16T08:56:27.078Z,94585.22
2018-10-16T08:58:56.808Z,94578.62
2018-10-16T09:01:26.643Z,94580.03
2018-10-16T09:03:56.093Z,94555.20
2018-10-16T09:06:26.070Z,94571.92
2018-10-16T09:08:55.513Z,94570.85
2018-10-16T09:11:25.083Z,94565.77
2018-10-16T09:13:55.150Z,94561.07
2018-10-16T09:16:24.764Z,94559.59
2018-10-16T09:18:54.089Z,94555.84
2018-10-16T09:21:23.655Z,94551.34
2018-10-16T09:23:53.471Z,94545.25
2018-10-16T09:26:23.472Z,94545.37
2018-10-16T09:28:53.799Z,94546.47
2018-10-16T09:31:23.411Z,94540.69
2018-10-16T09:33:52.933Z,94546.25
2018-10-16T09:36:23.495Z,94540.81
2018-10-16T09:38:53.464Z,94537.47
2018-10-16T09:41:23.438Z,94540.48
2018-10-16T09:43:53.819Z,94534.25
2018-10-16T09:46:23.208Z,94535.92
2018-10-16T09:48:53.147Z,94530.24
2018-10-16T09:51:22.528Z,94523.12
2018-10-16T09:53:51.660Z,94524.62
2018-10-16T09:56:20.849Z,94518.34
2018-10-16T09:58:50.135Z,94519.11
2018-10-16T10:01:24.323Z,94507.56
2018-10-16T10:03:54.448Z,94518.77
2018-10-16T10:06:23.764Z,94505.46
2018-10-16T10:08:53.142Z,94500.67
2018-10-16T10:11:23.256Z,94499.92
2018-10-16T10:13:52.458Z,94494.94
2018-10-16T10:16:21.502Z,94497.77
2018-10-16T10:18:50.512Z,94493.97
2018-10-16T10:21:19.592Z,94500.97
2018-10-16T10:23:48.740Z,94492.23
2018-10-16T10:26:17.935Z,94488.54
2018-10-16T10:28:47.822Z,94489.89
2018-10-16T10:31:17.404Z,94485.77
2018-10-16T10:33:46.796Z,94481.41
2018-10-16T10:36:17.179Z,94482.25
2018-10-16T10:38:46.690Z,94479.51
2018-10-16T10:41:15.760Z,94472.63
2018-10-16T10:43:44.918Z,94474.16
2018-10-16T10:46:14.019Z,94471.38
2018-10-16T10:48:43.154Z,94466.16
2018-10-16T10:51:12.458Z,94467.03
2018-10-16T10:53:41.483Z,94462.30
2018-10-16T10:56:10.800Z,94458.57
2018-10-16T10:58:39.996Z,94457.22
2018-10-16T11:01:09.189Z,94449.98
2018-10-16T11:03:38.375Z,94455.00
2018-10-16T11:06:08.709Z,94452.16
2018-10-16T11:08:40.868Z,94449.52
2018-10-16T11:11:10.478Z,94443.31
2018-10-16T11:13:40.147Z,94444.50
2018-10-16T11:16:10.505Z,94443.98
2018-10-16T11:18:41.818Z,94441.49
2018-10-16T11:21:12.878Z,94435.68
2018-10-16T11:23:42.634Z,94426.28
2018-10-16T11:26:12.984Z,94424.38
2018-10-16T11:28:43.425Z,94424.98
2018-10-16T11:31:13.279Z,94414.83
2018-10-16T11:33:42.769Z,94413.05
2018-10-16T11:36:12.995Z,94414.52
2018-10-16T11:38:43.496Z,94408.55
2018-10-16T11:41:13.581Z,94411.47
2018-10-16T11:43:43.919Z,94406.69
2018-10-16T11:46:13.012Z,94410.06
2018-10-16T11:48:42.272Z,94405.67
2018-10-16T11:51:12.195Z,94401.50
2018-10-16T11:53:41.542Z,94398.96
2018-10-16T11:56:10.669Z,94396.63
2018-10-16T11:58:39.807Z,94395.52
2018-10-16T12:01:09.496Z,94396.23
2018-10-16T12:03:38.907Z,94395.52
2018-10-16T12:06:10.031Z,94394.20
2018-10-16T12:08:40.327Z,94393.86
2018-10-16T12:11:09.989Z,94392.38
2018-10-16T12:13:39.526Z,94389.41
2018-10-16T12:16:09.526Z,94389.53
2018-10-16T12:18:42.679Z,94384.09
2018-10-16T12:21:18.301Z,94384.92
2018-10-16T12:23:47.627Z,94382.03
2018-10-16T12:26:18.757Z,94377.48
2018-10-16T12:28:47.832Z,94380.98
2018-10-16T12:31:17.082Z,94374.28
2018-10-16T12:36:17.200Z,94376.37
2018-10-16T12:38:47.735Z,94367.09
2018-10-16T12:41:18.811Z,94374.87
2018-10-16T12:43:48.405Z,94367.63
2018-10-16T12:46:18.600Z,94364.03
2018-10-16T12:48:48.001Z,94357.33
2018-10-16T12:51:17.764Z,94349.83
2018-10-16T12:53:47.130Z,94352.89
2018-10-16T12:56:16.446Z,94351.55
2018-10-16T12:58:45.603Z,94348.38
2018-10-16T13:01:16.815Z,94350.47
2018-10-16T13:03:47.680Z,94345.69
2018-10-16T13:06:17.590Z,94348.56
2018-10-16T13:08:46.617Z,94344.31
2018-10-16T13:11:15.736Z,94352.33
2018-10-16T13:13:44.813Z,94351.87
2018-10-16T13:16:14.158Z,94354.55
2018-10-16T13:18:43.209Z,94355.75
2018-10-16T13:21:12.456Z,94356.08
2018-10-16T13:23:42.142Z,94358.59
2018-10-16T13:26:12.337Z,94361.74
2018-10-16T13:28:41.993Z,94352.31
2018-10-16T13:31:11.018Z,94339.64
2018-10-16T13:33:40.062Z,94342.19
2018-10-16T13:36:09.161Z,94344.08
2018-10-16T13:38:38.227Z,94351.14
2018-10-16T13:41:07.506Z,94354.97
2018-10-16T13:43:36.595Z,94360.31
2018-10-16T13:46:06.448Z,94348.34
2018-10-16T13:48:35.466Z,94349.97
2018-10-16T13:51:04.635Z,94356.81
2018-10-16T13:53:33.726Z,94354.69
2018-10-16T13:56:04.131Z,94354.84
2018-10-16T13:58:34.066Z,94352.01
2018-10-16T14:01:04.000Z,94352.45
2018-10-16T14:03:34.285Z,94344.81
2018-10-16T14:06:04.550Z,94354.91
2018-10-16T14:08:34.193Z,94354.91
2018-10-16T14:11:04.133Z,94355.52
2018-10-16T14:13:35.119Z,94355.16
2018-10-16T14:16:05.167Z,94354.38
2018-10-16T14:18:34.916Z,94354.91
2018-10-16T14:21:04.893Z,94338.52
2018-10-16T14:23:34.438Z,94354.75
2018-10-16T14:26:03.940Z,94355.92
2018-10-16T14:28:33.575Z,94357.48
2018-10-16T14:31:03.115Z,94359.38
2018-10-16T14:33:32.585Z,94354.67
2018-10-16T14:36:02.399Z,94367.72
2018-10-16T14:38:31.576Z,94364.98
2018-10-16T14:41:00.738Z,94367.98
2018-10-16T14:43:31.647Z,94366.11
2018-10-16T14:46:01.819Z,94361.91
2018-10-16T14:48:31.065Z,94365.84
2018-10-16T14:51:02.155Z,94362.88
2018-10-16T14:53:31.622Z,94363.07
2018-10-16T14:56:03.985Z,94359.69
2018-10-16T14:58:33.377Z,94356.88
2018-10-16T15:01:03.007Z,94362.15
2018-10-16T15:03:32.256Z,94364.29
2018-10-16T15:06:01.671Z,94361.91
2018-10-16T15:08:31.105Z,94364.81
2018-10-16T15:11:00.692Z,94358.47
2018-10-16T15:13:30.106Z,94355.81
2018-10-16T15:15:59.613Z,94353.67
2018-10-16T15:18:28.931Z,94353.74
2018-10-16T15:20:58.260Z,94353.39
2018-10-16T15:23:27.688Z,94352.56
2018-10-16T15:25:57.246Z,94358.81
2018-10-16T15:28:27.155Z,94359.84
2018-10-16T15:30:56.572Z,94359.41
2018-10-16T15:33:25.944Z,94370.61
2018-10-16T15:35:55.699Z,94370.42
2018-10-16T15:38:25.308Z,94369.65
2018-10-16T15:40:55.914Z,94368.56
2018-10-16T15:43:25.383Z,94371.48
2018-10-16T15:45:54.780Z,94371.21
2018-10-16T15:48:24.308Z,94380.61
2018-10-16T15:50:53.847Z,94382.56
2018-10-16T15:53:23.202Z,94384.08
2018-10-16T15:55:52.704Z,94387.87
2018-10-16T15:58:22.384Z,94385.71
2018-10-16T16:00:52.828Z,94395.27
2018-10-16T16:03:22.390Z,94393.80
2018-10-16T16:05:52.267Z,94399.37
2018-10-16T16:08:23.429Z,94403.23
2018-10-16T16:10:54.534Z,94402.27
2018-10-16T16:13:24.368Z,94407.47
2018-10-16T16:15:54.446Z,94405.05
2018-10-16T16:18:24.586Z,94407.44
2018-10-16T16:20:54.887Z,94408.16
2018-10-16T16:23:25.440Z,94412.16
2018-10-16T16:25:55.742Z,94416.53
2018-10-16T16:28:25.671Z,94418.20
2018-10-16T16:30:55.714Z,94420.22
2018-10-16T16:33:27.104Z,94417.59
2018-10-16T16:35:57.423Z,94418.62
2018-10-16T16:38:27.628Z,94421.13
2018-10-16T16:40:57.411Z,94420.38
2018-10-16T16:43:27.197Z,94425.92
2018-10-16T16:45:59.914Z,94427.64
2018-10-16T16:48:29.560Z,94429.30
2018-10-16T16:50:59.044Z,94439.60
2018-10-16T16:53:28.605Z,94438.53
2018-10-16T16:55:58.455Z,94444.82
2018-10-16T16:58:28.356Z,94449.39
2018-10-16T17:00:59.156Z,94454.22
2018-10-16T17:03:28.811Z,94453.70
2018-10-16T17:05:58.509Z,94453.55
2018-10-16T17:08:28.727Z,94457.83
2018-10-16T17:10:58.357Z,94460.97
2018-10-16T17:13:28.488Z,94464.60
2018-10-16T17:15:58.887Z,94472.63
2018-10-16T17:18:28.145Z,94471.19
2018-10-16T17:20:57.283Z,94467.55
2018-10-16T17:23:28.029Z,94472.41
2018-10-16T17:25:58.162Z,94466.02
2018-10-16T17:28:28.868Z,94471.70
2018-10-16T17:31:09.957Z,94476.19
2018-10-16T17:33:41.047Z,94491.05
2018-10-16T17:36:12.056Z,94489.63
2018-10-16T17:38:42.654Z,94487.47
2018-10-16T17:41:12.837Z,94492.42
2018-10-16T17:43:49.334Z,94491.78
2018-10-16T17:46:19.958Z,94496.59
2018-10-16T17:48:51.873Z,94502.50
2018-10-16T17:51:24.113Z,94504.03
2018-10-16T17:53:55.109Z,94500.12
2018-10-16T17:56:27.910Z,94508.02
2018-10-16T17:58:59.140Z,94512.23
2018-10-16T18:01:30.240Z,94511.61
2018-10-16T18:04:01.727Z,94509.30
2018-10-16T18:06:33.098Z,94508.83
2018-10-16T18:09:02.553Z,94513.27
2018-10-16T18:11:32.013Z,94517.41
2018-10-16T18:14:01.358Z,94514.73
2018-10-16T18:16:31.153Z,94518.30
2018-10-16T18:19:00.707Z,94516.20
2018-10-16T18:21:31.735Z,94523.61
2018-10-16T18:24:01.479Z,94517.82
2018-10-16T18:26:30.881Z,94520.47
2018-10-16T18:29:01.252Z,94525.17
2018-10-16T18:31:31.799Z,94527.67
2018-10-16T18:34:05.998Z,94522.75
2018-10-16T18:36:35.480Z,94521.48
2018-10-16T18:39:06.619Z,94526.28
2018-10-16T18:41:36.770Z,94523.94
2018-10-16T18:44:06.455Z,94495.45
2018-10-16T18:46:36.348Z,94527.26
2018-10-16T18:49:05.861Z,94525.59
2018-10-16T18:51:35.254Z,94528.09
2018-10-16T18:54:04.829Z,94530.48
2018-10-16T18:56:34.592Z,94527.30
2018-10-16T18:59:04.697Z,94533.74
2018-10-16T19:01:34.023Z,94536.59
2018-10-16T19:04:03.983Z,94535.66
2018-10-16T19:06:33.652Z,94542.39
2018-10-16T19:09:03.289Z,94538.63
2018-10-16T19:11:34.007Z,94543.49
2018-10-16T19:14:03.980Z,94541.83
2018-10-16T19:16:33.379Z,94553.47
2018-10-16T19:19:03.818Z,94552.75
2018-10-16T19:21:36.267Z,94555.41
2018-10-16T19:24:05.845Z,94556.70
2018-10-16T19:26:35.942Z,94562.20
2018-10-16T19:29:05.456Z,94557.55
2018-10-16T19:31:35.040Z,94556.92
2018-10-16T19:34:04.582Z,94560.45
2018-10-16T19:36:34.003Z,94562.64
2018-10-16T19:39:04.090Z,94560.77
2018-10-16T19:41:33.437Z,94570.03
2018-10-16T19:44:03.178Z,94569.13
2018-10-16T19:46:33.264Z,94574.66
2018-10-16T19:49:03.381Z,94574.53
2018-10-16T19:51:32.811Z,94581.94
2018-10-16T19:54:03.107Z,94581.86
2018-10-16T19:56:32.499Z,94585.08
2018-10-16T19:59:01.952Z,94583.67
2018-10-16T20:01:31.822Z,94586.08
2018-10-16T20:04:02.041Z,94578.11
2018-10-16T20:06:31.764Z,94583.90
2018-10-16T20:09:01.132Z,94582.60
2018-10-16T20:11:31.193Z,94583.28
2018-10-16T20:14:01.020Z,94581.83
2018-10-16T20:16:30.415Z,94587.87
2018-10-16T20:18:59.816Z,94586.20
2018-10-16T20:21:29.334Z,94584.66
2018-10-16T20:23:58.960Z,94595.11
2018-10-16T20:26:29.348Z,94591.30
2018-10-16T20:32:10.092Z,94585.08
2018-10-16T20:34:39.735Z,94589.00
2018-10-16T20:37:09.436Z,94586.11
2018-10-16T20:39:38.913Z,94594.70
2018-10-16T20:42:08.703Z,94592.31
2018-10-16T20:44:38.182Z,94593.31
2018-10-16T20:47:07.567Z,94592.91
2018-10-16T20:49:37.416Z,94590.41
2018-10-16T20:52:06.842Z,94588.88
2018-10-16T20:54:36.607Z,94587.89
2018-10-16T20:57:07.291Z,94593.77
2018-10-16T20:59:36.801Z,94592.54
2018-10-16T21:02:06.137Z,94597.83
2018-10-16T21:04:35.608Z,94593.54
2018-10-16T21:07:05.191Z,94595.43
2018-10-16T21:09:34.431Z,94595.89
2018-10-16T21:12:03.928Z,94596.63
2018-10-16T21:14:33.499Z,94602.92
2018-10-16T21:17:02.878Z,94601.42
2018-10-16T21:19:32.472Z,94602.95
2018-10-16T21:22:01.979Z,94596.36
2018-10-16T21:24:31.312Z,94597.69
2018-10-16T21:27:06.050Z,94598.48
2018-10-16T21:29:35.774Z,94608.25
2018-10-16T21:32:06.006Z,94599.68
2018-10-16T21:34:35.345Z,94601.99
2018-10-16T21:37:05.503Z,94607.06
2018-10-16T21:39:35.049Z,94599.18
2018-10-16T21:42:04.377Z,94605.66
2018-10-16T21:44:33.851Z,94603.48
2018-10-16T21:47:03.331Z,94603.19
2018-10-16T21:49:32.614Z,94600.39
2018-10-16T21:52:01.952Z,94604.27
2018-10-16T21:54:31.363Z,94604.59
2018-10-16T21:57:00.768Z,94606.19
2018-10-16T21:59:30.313Z,94606.19
2018-10-16T22:02:04.949Z,94603.98
2018-10-16T22:04:34.469Z,94604.98
2018-10-16T22:07:04.010Z,94602.48
2018-10-16T22:09:33.424Z,94599.80
2018-10-16T22:12:02.690Z,94600.77
2018-10-16T22:14:32.008Z,94601.06
2018-10-16T22:17:01.565Z,94600.88
2018-10-16T22:19:31.179Z,94599.47
2018-10-16T22:22:00.759Z,94598.47
2018-10-16T22:24:30.282Z,94600.38
2018-10-16T22:27:00.243Z,94610.72
2018-10-16T22:29:30.745Z,94602.36
2018-10-16T22:32:00.240Z,94604.35
2018-10-16T22:34:29.806Z,94610.12
2018-10-16T22:36:59.239Z,94603.92
2018-10-16T22:39:28.613Z,94599.72
2018-10-16T22:41:58.118Z,94600.33
2018-10-16T22:44:27.667Z,94608.42
2018-10-16T22:46:57.135Z,94605.31
2018-10-16T22:49:27.563Z,94604.30
2018-10-16T22:51:57.312Z,94601.62
2018-10-16T22:54:27.114Z,94606.69
2018-10-16T22:56:56.832Z,94605.64
2018-10-16T22:59:26.577Z,94610.56
2018-10-16T23:01:56.136Z,94607.73
2018-10-16T23:04:25.657Z,94608.12
2018-10-16T23:06:55.627Z,94606.74
2018-10-16T23:09:25.208Z,94615.70
2018-10-16T23:11:54.631Z,94609.69
2018-10-16T23:14:49.244Z,94617.15
2018-10-16T23:17:18.685Z,94612.99
2018-10-16T23:19:47.900Z,94599.36
2018-10-16T23:22:17.592Z,94607.09
2018-10-16T23:24:47.505Z,94612.04
2018-10-16T23:27:17.093Z,94609.30
2018-10-16T23:29:46.422Z,94609.53
2018-10-16T23:32:15.836Z,94604.20
2018-10-16T23:34:45.228Z,94604.58
2018-10-16T23:37:14.561Z,94602.17
2018-10-16T23:39:43.897Z,94610.94
2018-10-16T23:42:13.227Z,94609.95
2018-10-16T23:44:42.430Z,94605.29
2018-10-16T23:47:11.942Z,94608.67
2018-10-16T23:49:41.289Z,94604.84
2018-10-16T23:52:10.711Z,94601.84
2018-10-16T23:54:40.039Z,94606.26
2018-10-16T23:57:10.013Z,94603.86
2018-10-16T23:59:39.513Z,94608.61
